Time;durP1;ratioP1;P1;durP2;ratioP2;P2;SDS_P1;SDS_P2;PMS_P1;PMS_P2;Temp;Humidity;BMP_temperature;BMP_pressure;BME280_temperature;BME280_humidity;BME280_pressure;Samples;Min_cycle;Max_cycle;Signal;HPM_P1;HPM_P2
2023/06/08 00:02:07;;;;;;;11.52;5.22;;;12.40;99.90;;;;;;5113579;27;20051;-58
2023/06/08 00:04:34;;;;;;;12.77;5.70;;;12.50;99.90;;;;;;5113265;27;20047;-57
2023/06/08 00:07:08;;;;;;;19.10;6.10;;;12.50;99.90;;;;;;5115291;27;20094;-59
2023/06/08 00:09:35;;;;;;;11.02;5.85;;;12.40;99.90;;;;;;5117280;27;20047;-58
2023/06/08 00:12:02;;;;;;;14.05;5.63;;;12.40;99.90;;;;;;5132962;27;20092;-59
2023/06/08 00:14:29;;;;;;;16.63;5.97;;;12.40;99.90;;;;;;5098842;27;20059;-58
2023/06/08 00:16:57;;;;;;;13.20;5.50;;;12.40;99.90;;;;;;5100955;27;20101;-59
2023/06/08 00:19:25;;;;;;;14.93;6.18;;;12.40;99.90;;;;;;5098996;27;20123;-58
2023/06/08 00:21:52;;;;;;;19.67;8.25;;;12.40;99.90;;;;;;5116636;27;20043;-59
2023/06/08 00:24:20;;;;;;;13.55;6.65;;;12.40;99.90;;;;;;5116896;27;20092;-58
2023/06/08 00:26:47;;;;;;;13.23;6.47;;;12.40;99.90;;;;;;5116294;27;20449;-57
2023/06/08 00:29:14;;;;;;;12.65;6.93;;;12.40;99.90;;;;;;5116505;27;20441;-58
2023/06/08 00:31:41;;;;;;;14.55;6.55;;;12.40;99.90;;;;;;5116974;27;20120;-59
2023/06/08 00:34:08;;;;;;;18.27;6.72;;;12.30;99.90;;;;;;5117012;27;20074;-58
2023/06/08 00:36:36;;;;;;;15.90;6.53;;;12.30;99.90;;;;;;5135563;27;20047;-58
2023/06/08 00:39:04;;;;;;;14.45;6.78;;;12.30;99.90;;;;;;5120629;27;20491;-59
2023/06/08 00:41:32;;;;;;;12.10;6.82;;;12.30;99.90;;;;;;5116059;27;20154;-58
2023/06/08 00:43:59;;;;;;;17.58;6.88;;;12.30;99.90;;;;;;5099751;27;20449;-57
2023/06/08 00:46:30;;;;;;;16.20;7.22;;;12.40;99.90;;;;;;5116485;27;20055;-59
2023/06/08 00:48:57;;;;;;;11.55;6.60;;;12.30;99.90;;;;;;5115910;27;20047;-58
2023/06/08 00:51:24;;;;;;;15.63;7.40;;;12.30;99.90;;;;;;5118801;27;20109;-59
2023/06/08 00:53:53;;;;;;;16.25;7.30;;;12.30;99.90;;;;;;5116160;27;20051;-58
2023/06/08 00:56:26;;;;;;;11.90;7.18;;;12.30;99.90;;;;;;5115982;27;20047;-58
2023/06/08 00:58:56;;;;;;;18.35;7.78;;;12.30;99.90;;;;;;5099766;27;20040;-58
2023/06/08 01:01:25;;;;;;;18.63;8.20;;;12.40;99.90;;;;;;5116350;27;20449;-57
2023/06/08 01:03:55;;;;;;;17.55;7.82;;;12.40;99.90;;;;;;5098606;27;20498;-58
2023/06/08 01:06:22;;;;;;;10.75;6.85;;;12.40;99.90;;;;;;5116054;27;20408;-58
2023/06/08 01:09:02;;;;;;;12.07;6.60;;;12.40;99.90;;;;;;5115045;27;20510;-58
2023/06/08 01:11:50;;;;;;;14.65;7.10;;;12.40;99.90;;;;;;5097932;27;20567;-58
2023/06/08 01:14:28;;;;;;;18.83;7.88;;;12.30;99.90;;;;;;5123800;27;20047;-58
2023/06/08 01:17:02;;;;;;;15.77;7.75;;;12.40;99.90;;;;;;5115738;27;20051;-58
2023/06/08 01:19:47;;;;;;;14.07;7.90;;;12.40;99.90;;;;;;5116745;27;20047;-58
2023/06/08 01:22:22;;;;;;;14.65;7.15;;;12.30;99.90;;;;;;5115480;27;20123;-59
2023/06/08 01:24:56;;;;;;;21.55;7.97;;;12.40;99.90;;;;;;5114151;27;20054;-59
2023/06/08 01:27:26;;;;;;;18.35;7.70;;;12.40;99.90;;;;;;5122891;27;20097;-57
2023/06/08 01:29:53;;;;;;;17.52;8.38;;;12.40;99.90;;;;;;5097049;27;20058;-58
2023/06/08 01:32:19;;;;;;;18.77;7.32;;;12.40;99.90;;;;;;5099044;27;20052;-58
2023/06/08 01:34:47;;;;;;;18.15;8.23;;;12.40;99.90;;;;;;5115560;27;20506;-59
2023/06/08 01:37:20;;;;;;;17.85;7.68;;;12.40;99.90;;;;;;5098399;27;20411;-59
2023/06/08 01:39:57;;;;;;;14.90;7.22;;;12.40;99.90;;;;;;5098785;27;20051;-58
2023/06/08 01:42:25;;;;;;;12.05;7.07;;;12.40;99.90;;;;;;5133063;27;20066;-58
2023/06/08 01:44:58;;;;;;;10.90;6.57;;;12.30;99.90;;;;;;5115660;27;20070;-59
2023/06/08 01:47:32;;;;;;;15.18;6.45;;;12.30;99.90;;;;;;5116071;27;20096;-58
2023/06/08 01:49:59;;;;;;;10.60;6.18;;;12.30;99.90;;;;;;5115042;27;20043;-59
2023/06/08 01:52:26;;;;;;;15.80;6.63;;;12.30;99.90;;;;;;5098037;27;20055;-58
2023/06/08 01:54:55;;;;;;;14.32;6.43;;;12.30;99.90;;;;;;5115222;27;20047;-58
2023/06/08 01:57:22;;;;;;;11.68;6.35;;;12.30;99.90;;;;;;5098530;27;20496;-57
2023/06/08 01:59:49;;;;;;;15.15;6.43;;;12.30;99.90;;;;;;5114201;27;20047;-58
2023/06/08 02:02:16;;;;;;;15.55;7.18;;;12.30;99.90;;;;;;5098111;27;20052;-57
2023/06/08 02:04:43;;;;;;;14.88;6.68;;;12.30;99.90;;;;;;5114585;27;20051;-59
2023/06/08 02:07:10;;;;;;;15.35;6.25;;;12.30;99.90;;;;;;5114169;27;20047;-58
2023/06/08 02:09:37;;;;;;;16.92;6.57;;;12.40;99.90;;;;;;5123732;27;20088;-57
2023/06/08 02:12:07;;;;;;;16.65;6.93;;;12.40;99.90;;;;;;5114224;27;20100;-58
2023/06/08 02:14:34;;;;;;;10.07;6.60;;;12.40;99.90;;;;;;5113935;27;20133;-57
2023/06/08 02:17:03;;;;;;;20.38;7.60;;;12.40;99.90;;;;;;5133720;27;20383;-58
2023/06/08 02:19:31;;;;;;;19.67;8.57;;;12.40;99.90;;;;;;5097477;27;20128;-58
2023/06/08 02:21:59;;;;;;;11.07;6.93;;;12.50;99.90;;;;;;5114766;27;20054;-57
2023/06/08 02:24:26;;;;;;;16.40;7.82;;;12.40;99.90;;;;;;5097076;27;20052;-58
2023/06/08 02:26:54;;;;;;;13.90;7.32;;;12.40;99.90;;;;;;5114344;27;20047;-57
2023/06/08 02:29:22;;;;;;;14.98;7.30;;;12.40;99.90;;;;;;5113778;27;20093;-58
2023/06/08 02:31:49;;;;;;;15.60;8.32;;;12.40;99.90;;;;;;5114274;27;20096;-59
2023/06/08 02:34:17;;;;;;;14.05;7.40;;;12.40;99.90;;;;;;5113535;27;20052;-59
2023/06/08 02:36:47;;;;;;;8.25;5.78;;;12.40;99.90;;;;;;5114482;27;20100;-57
2023/06/08 02:39:14;;;;;;;15.52;6.68;;;12.30;99.90;;;;;;5096291;27;20055;-58
2023/06/08 02:41:41;;;;;;;14.75;7.28;;;12.40;99.90;;;;;;5113780;27;20041;-59
2023/06/08 02:44:08;;;;;;;13.73;7.05;;;12.40;99.90;;;;;;5096283;27;20059;-59
2023/06/08 02:46:38;;;;;;;17.98;7.30;;;12.40;99.90;;;;;;5113968;27;20100;-58
2023/06/08 02:49:05;;;;;;;18.15;7.05;;;12.40;99.90;;;;;;5097607;27;20043;-58
2023/06/08 02:51:32;;;;;;;12.25;6.88;;;12.40;99.90;;;;;;5095958;27;20495;-58
2023/06/08 02:53:59;;;;;;;12.98;5.70;;;12.40;99.90;;;;;;5113907;27;20043;-59
2023/06/08 02:56:26;;;;;;;12.15;6.53;;;12.40;99.90;;;;;;5095644;27;20046;-59
2023/06/08 02:58:54;;;;;;;16.95;6.50;;;12.40;99.90;;;;;;5097401;27;20043;-58
2023/06/08 03:01:21;;;;;;;11.02;5.35;;;12.30;99.90;;;;;;5095441;27;20119;-58
2023/06/08 03:03:51;;;;;;;15.55;5.85;;;12.30;99.90;;;;;;5113649;27;20078;-58
2023/06/08 03:06:19;;;;;;;12.20;5.90;;;12.30;99.90;;;;;;5114243;27;20047;-59
2023/06/08 03:08:47;;;;;;;12.55;6.57;;;12.40;99.90;;;;;;5114302;27;20146;-58
2023/06/08 03:11:14;;;;;;;11.35;5.80;;;12.40;99.90;;;;;;5112302;27;20043;-58
2023/06/08 03:13:41;;;;;;;10.23;5.57;;;12.30;99.90;;;;;;5132565;27;20051;-58
2023/06/08 03:16:08;;;;;;;12.75;6.18;;;12.30;99.90;;;;;;5115043;27;20453;-58
2023/06/08 03:18:35;;;;;;;11.48;5.43;;;12.30;99.90;;;;;;5096241;27;20047;-59
2023/06/08 03:21:04;;;;;;;13.82;5.93;;;12.30;99.90;;;;;;5113265;27;20487;-58
2023/06/08 03:23:33;;;;;;;20.60;7.97;;;12.30;99.90;;;;;;5125405;27;20076;-58
2023/06/08 03:25:59;;;;;;;13.48;6.40;;;12.30;99.90;;;;;;5152729;27;20398;-58
2023/06/08 03:28:26;;;;;;;14.10;6.18;;;12.30;99.90;;;;;;5151652;27;20403;-58
2023/06/08 03:30:53;;;;;;;15.85;6.45;;;12.30;99.90;;;;;;5151911;27;20047;-58
2023/06/08 03:33:20;;;;;;;14.93;6.95;;;12.30;99.90;;;;;;5133477;27;20096;-60
2023/06/08 03:35:47;;;;;;;13.35;5.50;;;12.30;99.90;;;;;;5134068;27;20054;-58
2023/06/08 03:38:16;;;;;;;10.38;6.32;;;12.50;99.90;;;;;;5115296;27;20048;-58
2023/06/08 03:40:42;;;;;;;11.98;6.18;;;12.40;99.90;;;;;;5098622;27;20104;-59
2023/06/08 03:43:09;;;;;;;11.30;5.80;;;12.40;99.90;;;;;;5101631;27;20078;-59
2023/06/08 03:45:36;;;;;;;15.60;6.95;;;12.50;99.90;;;;;;5116993;27;20143;-58
2023/06/08 03:48:03;;;;;;;14.32;5.53;;;12.50;99.90;;;;;;5117452;27;20492;-58
2023/06/08 03:50:31;;;;;;;7.55;5.63;;;12.50;99.90;;;;;;5119548;27;20043;-58
2023/06/08 03:52:58;;;;;;;12.15;5.30;;;12.70;99.90;;;;;;5132813;27;20444;-58
2023/06/08 03:55:28;;;;;;;19.75;6.25;;;12.80;99.90;;;;;;5133440;27;20043;-59
2023/06/08 03:57:55;;;;;;;10.27;5.20;;;13.00;99.90;;;;;;5114084;27;20086;-58
2023/06/08 04:00:22;;;;;;;15.68;5.30;;;13.10;99.90;;;;;;5108966;27;20495;-59
2023/06/08 04:02:50;;;;;;;10.77;5.93;;;13.20;99.90;;;;;;5102381;27;20559;-58
2023/06/08 04:05:17;;;;;;;10.63;6.43;;;13.30;99.90;;;;;;5134954;27;20059;-59
2023/06/08 04:07:47;;;;;;;12.95;5.03;;;13.20;99.90;;;;;;5126821;27;20056;-59
2023/06/08 04:10:14;;;;;;;12.95;5.22;;;13.50;99.90;;;;;;5128830;27;20035;-58
2023/06/08 04:12:42;;;;;;;13.60;6.28;;;13.80;99.90;;;;;;5130443;27;20047;-58
2023/06/08 04:15:10;;;;;;;17.17;4.97;;;14.00;99.90;;;;;;5117122;27;20055;-59
2023/06/08 04:17:40;;;;;;;13.95;6.00;;;14.30;99.90;;;;;;5131470;27;20127;-59
2023/06/08 04:20:08;;;;;;;14.65;5.90;;;14.30;99.90;;;;;;5134021;27;20047;-59
2023/06/08 04:22:35;;;;;;;14.43;5.32;;;14.20;99.90;;;;;;5130557;27;20050;-58
2023/06/08 04:25:02;;;;;;;14.00;5.20;;;14.90;99.90;;;;;;5122637;27;20054;-59
2023/06/08 04:27:29;;;;;;;14.82;5.65;;;14.90;99.90;;;;;;5107263;27;20547;-59
2023/06/08 04:29:58;;;;;;;10.20;4.75;;;15.00;99.90;;;;;;5125369;27;20123;-58
2023/06/08 04:32:25;;;;;;;12.18;4.47;;;15.10;99.90;;;;;;5127608;27;20050;-58
2023/06/08 04:34:52;;;;;;;13.25;5.18;;;15.30;99.90;;;;;;5128224;27;20047;-58
2023/06/08 04:37:19;;;;;;;10.65;4.97;;;15.10;99.90;;;;;;5127489;27;20578;-59
2023/06/08 04:39:48;;;;;;;11.90;5.13;;;15.10;99.90;;;;;;5128269;27;20043;-59
2023/06/08 04:42:17;;;;;;;12.95;5.50;;;15.00;99.90;;;;;;5130042;27;20049;-60
2023/06/08 04:44:44;;;;;;;11.73;4.80;;;14.60;99.90;;;;;;5129505;27;20043;-59
2023/06/08 04:47:14;;;;;;;19.75;5.53;;;14.20;99.90;;;;;;5134774;27;20410;-59
2023/06/08 04:49:41;;;;;;;10.40;4.80;;;14.10;99.90;;;;;;5130020;27;20547;-58
2023/06/08 04:52:12;;;;;;;13.13;4.90;;;13.90;99.90;;;;;;5114258;27;20051;-59
2023/06/08 04:54:39;;;;;;;18.25;5.25;;;13.80;99.90;;;;;;5129457;27;20047;-58
2023/06/08 04:57:09;;;;;;;16.88;5.85;;;13.80;99.90;;;;;;5133446;27;20075;-58
2023/06/08 04:59:36;;;;;;;15.27;6.32;;;13.70;99.90;;;;;;5113415;27;20068;-59
2023/06/08 05:02:03;;;;;;;13.80;5.55;;;13.70;99.90;;;;;;5111279;27;20055;-59
2023/06/08 05:04:31;;;;;;;11.63;4.75;;;13.70;99.90;;;;;;5131688;27;20042;-59
2023/06/08 05:06:58;;;;;;;12.23;5.30;;;13.60;99.90;;;;;;5119375;27;20091;-59
2023/06/08 05:09:25;;;;;;;8.20;4.75;;;13.60;99.90;;;;;;5129072;27;20820;-59
2023/06/08 05:11:52;;;;;;;14.32;5.55;;;13.60;99.90;;;;;;5126688;27;20479;-59
2023/06/08 05:14:19;;;;;;;11.07;5.18;;;13.70;99.90;;;;;;5111707;27;20052;-59
2023/06/08 05:16:46;;;;;;;9.30;4.50;;;13.70;99.90;;;;;;5111909;27;20054;-60
2023/06/08 05:19:13;;;;;;;12.02;5.07;;;13.80;99.90;;;;;;5110501;27;20047;-58
2023/06/08 05:21:41;;;;;;;10.15;5.03;;;13.80;99.90;;;;;;5126446;27;20135;-59
2023/06/08 05:24:09;;;;;;;9.10;4.38;;;13.90;99.90;;;;;;5109424;27;20046;-59
2023/06/08 05:26:36;;;;;;;14.60;5.72;;;13.80;99.90;;;;;;5133075;27;20042;-60
2023/06/08 05:29:02;;;;;;;11.90;5.07;;;13.90;99.90;;;;;;5107286;27;20055;-58
2023/06/08 05:31:29;;;;;;;17.13;5.95;;;14.00;99.90;;;;;;5130265;27;20100;-58
2023/06/08 05:33:56;;;;;;;14.88;5.40;;;14.00;99.90;;;;;;5113876;27;20080;-59
2023/06/08 05:36:23;;;;;;;14.88;5.90;;;14.00;99.90;;;;;;5119846;27;20059;-59
2023/06/08 05:38:51;;;;;;;14.50;5.68;;;14.10;99.90;;;;;;5113043;27;20043;-59
2023/06/08 05:41:18;;;;;;;12.48;6.22;;;14.20;99.90;;;;;;5108761;27;20051;-58
2023/06/08 05:43:45;;;;;;;17.73;5.93;;;14.30;99.90;;;;;;5125919;27;20511;-58
2023/06/08 05:46:14;;;;;;;14.07;5.35;;;14.40;99.90;;;;;;5120561;27;20051;-59
2023/06/08 05:48:41;;;;;;;10.75;5.35;;;14.50;99.90;;;;;;5128008;27;20097;-58
2023/06/08 05:51:08;;;;;;;11.20;5.05;;;14.60;99.90;;;;;;5128707;27;20455;-59
2023/06/08 05:53:36;;;;;;;10.68;5.03;;;14.70;99.90;;;;;;5114189;27;20047;-59
2023/06/08 05:56:04;;;;;;;9.73;4.68;;;14.80;99.90;;;;;;5129539;27;20054;-59
2023/06/08 05:58:31;;;;;;;13.35;5.35;;;14.90;99.90;;;;;;5106904;27;20469;-59
2023/06/08 06:00:59;;;;;;;11.95;5.10;;;14.90;99.90;;;;;;5130812;27;20478;-59
2023/06/08 06:03:26;;;;;;;10.90;5.22;;;15.10;99.90;;;;;;5133614;27;20126;-59
2023/06/08 06:05:53;;;;;;;14.05;4.75;;;15.10;99.90;;;;;;5126948;27;20546;-59
2023/06/08 06:08:20;;;;;;;11.43;4.55;;;15.20;99.90;;;;;;5128353;27;20062;-58
2023/06/08 06:10:47;;;;;;;11.32;4.80;;;15.30;99.90;;;;;;5126925;27;20071;-59
2023/06/08 06:13:15;;;;;;;12.38;5.07;;;15.30;99.90;;;;;;5125750;27;20043;-59
2023/06/08 06:15:42;;;;;;;11.05;4.65;;;15.30;99.90;;;;;;5127203;27;20452;-59
2023/06/08 06:18:09;;;;;;;10.93;4.88;;;15.50;99.90;;;;;;5118152;27;20452;-59
2023/06/08 06:20:35;;;;;;;16.83;4.85;;;15.60;99.90;;;;;;5129487;27;20383;-59
2023/06/08 06:23:02;;;;;;;14.00;5.65;;;15.90;99.90;;;;;;5108642;27;20051;-57
2023/06/08 06:25:29;;;;;;;9.55;4.45;;;16.10;99.90;;;;;;5111630;27;20506;-58
2023/06/08 06:27:56;;;;;;;14.20;5.88;;;16.20;99.90;;;;;;5100902;27;20172;-59
2023/06/08 06:30:25;;;;;;;18.70;4.93;;;16.30;99.90;;;;;;5111081;27;20043;-59
2023/06/08 06:32:52;;;;;;;13.20;4.07;;;16.20;99.90;;;;;;5102015;27;20386;-59
2023/06/08 06:35:19;;;;;;;16.02;5.55;;;16.40;99.90;;;;;;5109059;27;20141;-59
2023/06/08 06:37:46;;;;;;;21.55;5.47;;;16.70;99.90;;;;;;5120875;27;20043;-59
2023/06/08 06:40:13;;;;;;;11.15;4.78;;;16.90;99.90;;;;;;5111196;27;20095;-58
2023/06/08 06:42:40;;;;;;;12.75;4.70;;;17.20;99.90;;;;;;5134330;27;20043;-59
2023/06/08 06:45:11;;;;;;;10.93;5.00;;;17.40;99.90;;;;;;5106618;27;20376;-59
2023/06/08 06:47:39;;;;;;;11.55;4.43;;;17.60;99.90;;;;;;5124688;27;20403;-59
2023/06/08 06:50:07;;;;;;;16.33;4.97;;;17.80;99.90;;;;;;5127820;27;20733;-60
2023/06/08 06:52:34;;;;;;;11.68;3.97;;;17.90;99.90;;;;;;5110548;27;20047;-59
2023/06/08 06:55:02;;;;;;;11.27;4.50;;;18.20;99.90;;;;;;5114642;27;20051;-58
2023/06/08 06:57:31;;;;;;;14.00;5.35;;;18.40;99.90;;;;;;5128921;27;20067;-59
2023/06/08 06:59:58;;;;;;;8.02;3.65;;;18.60;99.90;;;;;;5111531;27;20055;-59
2023/06/08 07:02:28;;;;;;;13.30;4.20;;;18.90;99.90;;;;;;5129049;27;20043;-60
2023/06/08 07:04:58;;;;;;;16.33;4.20;;;19.20;99.90;;;;;;5119870;27;20046;-59
2023/06/08 07:07:26;;;;;;;;;;;19.40;99.90;;;;;;5129282;27;20455;-59
2023/06/08 07:09:53;;;;;;;9.02;3.90;;;19.40;99.90;;;;;;5123461;27;19928;-59
2023/06/08 07:12:20;;;;;;;11.32;3.80;;;19.70;99.90;;;;;;5115955;27;20051;-59
2023/06/08 07:14:47;;;;;;;11.45;3.80;;;19.90;99.90;;;;;;5116547;27;20051;-58
2023/06/08 07:17:15;;;;;;;11.20;4.75;;;20.00;99.90;;;;;;5111964;27;20051;-59
2023/06/08 07:19:44;;;;;;;13.15;4.00;;;20.10;99.90;;;;;;5129964;28;20047;-59
2023/06/08 07:22:12;;;;;;;10.93;3.67;;;20.40;99.90;;;;;;5113800;28;20051;-59
2023/06/08 07:24:39;;;;;;;10.40;3.70;;;20.50;99.90;;;;;;5123120;27;20514;-59
2023/06/08 07:27:06;;;;;;;9.70;3.80;;;20.60;99.90;;;;;;5109098;28;20058;-59
2023/06/08 07:29:34;;;;;;;11.10;4.32;;;20.90;99.90;;;;;;5124571;27;20062;-59
2023/06/08 07:32:01;;;;;;;15.45;4.20;;;21.20;99.90;;;;;;5128797;28;20448;-59
2023/06/08 07:34:28;;;;;;;10.15;3.83;;;21.40;99.90;;;;;;5125915;27;20095;-59
2023/06/08 07:36:55;;;;;;;10.50;3.65;;;21.70;99.90;;;;;;5112141;28;20051;-59
2023/06/08 07:39:23;;;;;;;8.77;3.28;;;21.70;99.90;;;;;;5109095;28;20038;-59
2023/06/08 07:41:50;;;;;;;9.63;3.67;;;21.90;99.90;;;;;;5111989;28;20055;-59
2023/06/08 07:44:17;;;;;;;10.68;3.90;;;22.20;99.90;;;;;;5129251;28;20040;-60
2023/06/08 07:46:44;;;;;;;11.02;4.03;;;22.50;99.90;;;;;;5096173;27;20112;-60
2023/06/08 07:49:10;;;;;;;9.20;3.83;;;22.20;99.40;;;;;;5111414;28;20050;-59
2023/06/08 07:51:38;;;;;;;9.95;3.65;;;22.30;99.20;;;;;;5148729;27;20049;-59
2023/06/08 07:54:05;;;;;;;10.88;4.25;;;22.70;99.10;;;;;;5126355;27;20050;-59
2023/06/08 07:56:34;;;;;;;10.77;3.72;;;22.90;98.60;;;;;;5128409;27;20063;-59
2023/06/08 07:59:01;;;;;;;10.05;3.83;;;22.90;98.50;;;;;;5112507;27;20504;-59
2023/06/08 08:01:27;;;;;;;8.40;3.92;;;23.20;98.40;;;;;;5113995;28;20554;-59
2023/06/08 08:03:54;;;;;;;11.85;4.85;;;23.30;98.00;;;;;;5095576;27;20107;-59
2023/06/08 08:06:21;;;;;;;14.80;4.50;;;23.60;97.70;;;;;;5130709;28;20047;-60
2023/06/08 08:08:48;;;;;;;9.85;4.38;;;23.70;97.30;;;;;;5127371;27;20495;-60
2023/06/08 08:11:15;;;;;;;15.57;4.22;;;23.80;97.10;;;;;;5109964;28;20463;-60
2023/06/08 08:13:43;;;;;;;11.18;3.50;;;24.00;97.20;;;;;;5151184;27;20101;-59
2023/06/08 08:16:10;;;;;;;11.65;4.07;;;23.80;96.00;;;;;;5132939;27;20527;-60
2023/06/08 08:18:37;;;;;;;9.70;3.63;;;23.80;96.40;;;;;;5132526;27;20051;-60
2023/06/08 08:21:04;;;;;;;10.18;3.80;;;24.10;96.20;;;;;;5133140;27;20482;-59
2023/06/08 08:23:31;;;;;;;10.75;3.90;;;24.30;95.80;;;;;;5151687;27;20054;-59
2023/06/08 08:25:57;;;;;;;7.93;3.42;;;24.40;95.70;;;;;;5132522;27;20099;-59
2023/06/08 08:28:24;;;;;;;8.40;3.55;;;24.50;95.10;;;;;;5154652;27;20042;-59
2023/06/08 08:30:53;;;;;;;8.95;3.70;;;24.80;94.70;;;;;;5154939;27;20550;-60
2023/06/08 08:33:19;;;;;;;10.45;4.15;;;24.80;94.30;;;;;;5154777;27;20062;-60
2023/06/08 08:35:46;;;;;;;7.93;3.60;;;24.90;94.80;;;;;;5155199;27;20402;-59
2023/06/08 08:38:13;;;;;;;9.35;3.53;;;24.70;94.50;;;;;;5155743;27;20043;-60
2023/06/08 08:40:41;;;;;;;7.32;3.33;;;24.90;94.10;;;;;;5135831;27;20096;-60
2023/06/08 08:43:13;;;;;;;7.53;3.63;;;25.10;94.20;;;;;;5155436;27;20061;-60
2023/06/08 08:45:41;;;;;;;6.45;3.35;;;25.20;93.90;;;;;;5117339;27;20054;-60
2023/06/08 08:48:13;;;;;;;8.77;3.20;;;25.40;93.80;;;;;;5098567;27;20126;-60
2023/06/08 08:50:41;;;;;;;8.10;4.13;;;25.70;93.00;;;;;;5113576;27;20082;-61
2023/06/08 08:53:10;;;;;;;8.70;3.67;;;25.90;92.80;;;;;;5135880;27;20130;-60
2023/06/08 08:55:41;;;;;;;11.53;3.67;;;25.80;92.50;;;;;;5121813;27;20422;-60
2023/06/08 08:58:09;;;;;;;6.57;3.05;;;25.80;92.30;;;;;;5116293;27;20321;-61
2023/06/08 09:00:36;;;;;;;10.02;3.60;;;25.70;92.20;;;;;;5116017;27;20040;-61
2023/06/08 09:03:03;;;;;;;9.02;3.47;;;25.50;92.00;;;;;;5100129;27;20130;-60
2023/06/08 09:05:31;;;;;;;11.48;3.50;;;25.70;92.40;;;;;;5123641;27;20436;-61
2023/06/08 09:07:58;;;;;;;6.45;2.90;;;26.00;92.50;;;;;;5131409;27;20103;-61
2023/06/08 09:10:27;;;;;;;7.78;3.58;;;25.90;92.20;;;;;;5118110;27;20051;-60
2023/06/08 09:12:56;;;;;;;7.18;2.90;;;26.10;91.80;;;;;;5098578;27;20046;-59
2023/06/08 09:15:28;;;;;;;8.88;3.40;;;26.60;91.60;;;;;;5122585;27;20437;-60
2023/06/08 09:17:55;;;;;;;10.27;3.75;;;26.60;90.80;;;;;;5097721;27;20055;-60
2023/06/08 09:20:34;;;;;;;8.63;3.40;;;26.70;91.20;;;;;;5122663;27;20491;-60
2023/06/08 09:23:15;;;;;;;8.95;3.30;;;27.10;90.60;;;;;;5116054;27;20054;-59
2023/06/08 09:25:42;;;;;;;9.55;3.13;;;26.50;88.80;;;;;;5115739;27;20123;-59
2023/06/08 09:28:17;;;;;;;6.80;3.00;;;26.90;90.50;;;;;;5098496;27;20112;-59
2023/06/08 09:30:44;;;;;;;6.43;2.72;;;27.00;89.70;;;;;;5115885;27;20105;-59
2023/06/08 09:33:20;;;;;;;6.47;2.75;;;27.20;90.30;;;;;;5114387;27;20044;-60
2023/06/08 09:35:48;;;;;;;9.57;3.00;;;27.00;89.70;;;;;;5121418;27;20506;-59
2023/06/08 09:38:20;;;;;;;8.57;3.10;;;27.10;90.00;;;;;;5110296;27;20063;-60
2023/06/08 09:40:47;;;;;;;8.23;3.10;;;27.20;89.50;;;;;;5129509;27;20051;-60
2023/06/08 09:43:31;;;;;;;8.05;3.28;;;27.40;90.00;;;;;;5113685;27;20051;-59
2023/06/08 09:45:58;;;;;;;8.93;3.30;;;27.80;88.20;;;;;;5133663;27;20096;-59
2023/06/08 09:48:25;;;;;;;7.07;3.30;;;27.60;88.70;;;;;;5115207;27;20051;-60
2023/06/08 09:50:56;;;;;;;9.95;3.47;;;27.70;88.50;;;;;;5114836;27;20456;-60
2023/06/08 09:53:24;;;;;;;6.50;3.47;;;27.90;88.10;;;;;;5114523;27;20043;-59
2023/06/08 09:55:53;;;;;;;11.57;3.30;;;27.90;88.30;;;;;;5114570;27;20050;-62
2023/06/08 09:58:22;;;;;;;8.20;2.42;;;27.50;88.40;;;;;;5115572;27;20085;-59
2023/06/08 10:00:51;;;;;;;10.02;3.15;;;27.40;88.40;;;;;;5125870;27;20461;-60
2023/06/08 10:03:25;;;;;;;7.83;3.13;;;27.40;88.20;;;;;;5096984;27;20050;-60
2023/06/08 10:05:55;;;;;;;7.15;2.67;;;27.50;87.60;;;;;;5096596;27;20358;-60
2023/06/08 10:08:25;;;;;;;;;;;27.60;88.10;;;;;;5115157;27;20054;-61
2023/06/08 10:10:52;;;;;;;9.52;2.88;;;27.90;86.80;;;;;;5117329;27;19984;-59
2023/06/08 10:13:19;;;;;;;7.05;2.92;;;28.00;87.10;;;;;;5128721;27;20051;-60
2023/06/08 10:15:47;;;;;;;6.10;2.83;;;28.10;86.60;;;;;;5106733;27;20050;-60
2023/06/08 10:18:15;;;;;;;7.28;3.03;;;28.30;86.60;;;;;;5122772;27;20051;-60
2023/06/08 10:20:42;;;;;;;11.07;3.33;;;28.30;85.90;;;;;;5131590;27;20047;-61
2023/06/08 10:23:12;;;;;;;10.70;3.15;;;28.40;86.40;;;;;;5114506;27;20082;-59
2023/06/08 10:25:40;;;;;;;;;;;28.60;85.50;;;;;;5127230;27;20043;-61
2023/06/08 10:28:09;;;;;;;5.32;2.42;;;28.20;83.90;;;;;;5111536;27;19923;-59
2023/06/08 10:30:41;;;;;;;8.65;3.05;;;28.40;85.60;;;;;;5130774;27;20053;-59
2023/06/08 10:33:09;;;;;;;5.70;2.83;;;28.20;85.40;;;;;;5098305;27;20065;-61
2023/06/08 10:35:37;;;;;;;8.82;3.28;;;28.20;85.20;;;;;;5114117;27;20046;-60
2023/06/08 10:38:13;;;;;;;8.15;2.63;;;28.10;85.60;;;;;;5124628;27;20050;-59
2023/06/08 10:40:45;;;;;;;6.97;3.00;;;28.20;83.80;;;;;;5118840;27;20491;-61
2023/06/08 10:43:12;;;;;;;8.30;2.75;;;28.10;84.10;;;;;;5104157;27;20078;-60
2023/06/08 10:45:41;;;;;;;8.55;3.33;;;28.10;84.70;;;;;;5129686;27;20042;-60
2023/06/08 10:48:09;;;;;;;9.27;3.65;;;28.20;85.00;;;;;;5122702;27;20047;-60
2023/06/08 10:50:40;;;;;;;8.57;3.20;;;28.10;85.10;;;;;;5112433;27;20057;-61
2023/06/08 10:53:07;;;;;;;5.93;2.75;;;28.00;84.20;;;;;;5106866;27;20051;-59
2023/06/08 10:55:35;;;;;;;7.32;2.75;;;27.80;84.40;;;;;;5131555;27;20043;-61
2023/06/08 10:58:06;;;;;;;6.63;2.85;;;28.10;85.80;;;;;;5126431;27;20122;-61
2023/06/08 11:00:46;;;;;;;8.20;2.80;;;28.20;84.50;;;;;;5111754;27;20053;-60
2023/06/08 11:03:15;;;;;;;5.63;3.03;;;28.40;84.40;;;;;;5118246;27;20051;-60
2023/06/08 11:05:44;;;;;;;10.43;2.80;;;28.40;84.20;;;;;;5079491;27;20138;-60
2023/06/08 11:08:11;;;;;;;;;;;28.30;84.00;;;;;;5126260;27;20046;-60
2023/06/08 11:10:42;;;;;;;5.50;2.20;;;28.10;82.40;;;;;;5107662;27;19924;-60
2023/06/08 11:13:11;;;;;;;6.57;2.58;;;28.40;83.40;;;;;;5123403;27;20039;-60
2023/06/08 11:15:39;;;;;;;6.30;2.40;;;28.60;83.40;;;;;;5105980;28;20056;-60
2023/06/08 11:18:08;;;;;;;8.90;2.97;;;28.30;83.70;;;;;;5128094;27;20100;-60
2023/06/08 11:20:37;;;;;;;9.40;3.03;;;28.40;83.70;;;;;;5137375;27;20043;-61
2023/06/08 11:23:07;;;;;;;7.15;3.08;;;28.20;83.40;;;;;;5126169;27;20777;-61
2023/06/08 11:25:34;;;;;;;7.25;2.85;;;28.50;83.50;;;;;;5123792;27;20095;-60
2023/06/08 11:28:03;;;;;;;6.75;3.13;;;28.90;83.90;;;;;;5120127;27;20052;-60
2023/06/08 11:30:33;;;;;;;7.27;3.10;;;28.50;82.50;;;;;;5129832;27;20055;-60
2023/06/08 11:33:01;;;;;;;7.28;2.55;;;28.50;83.90;;;;;;5113663;28;20129;-61
2023/06/08 11:35:28;;;;;;;8.07;2.45;;;28.60;83.60;;;;;;5121734;27;20398;-60
2023/06/08 11:37:56;;;;;;;6.55;2.35;;;28.50;83.70;;;;;;5125150;27;20104;-60
2023/06/08 11:40:23;;;;;;;6.20;2.40;;;28.40;83.00;;;;;;5126041;28;20105;-61
2023/06/08 11:42:51;;;;;;;8.10;2.58;;;28.40;83.30;;;;;;5122415;27;20043;-60
2023/06/08 11:45:20;;;;;;;8.43;2.70;;;28.30;83.40;;;;;;5107620;28;20051;-61
2023/06/08 11:47:47;;;;;;;7.68;2.47;;;28.50;82.90;;;;;;5118379;27;20379;-61
2023/06/08 11:50:16;;;;;;;6.07;2.47;;;28.40;82.20;;;;;;5128201;28;20050;-60
2023/06/08 11:52:43;;;;;;;8.10;2.60;;;28.40;82.10;;;;;;5108061;28;20071;-60
2023/06/08 11:55:15;;;;;;;6.88;2.55;;;28.40;81.80;;;;;;5109027;27;20047;-60
2023/06/08 11:57:44;;;;;;;8.30;2.50;;;28.30;81.70;;;;;;5125230;27;20422;-59
2023/06/08 12:00:15;;;;;;;11.68;2.63;;;28.50;81.80;;;;;;5131604;28;20049;-59
2023/06/08 12:02:47;;;;;;;6.53;2.67;;;28.40;81.60;;;;;;5099206;27;20120;-60
2023/06/08 12:05:16;;;;;;;16.05;3.10;;;28.30;81.40;;;;;;5115895;27;20096;-60
2023/06/08 12:07:54;;;;;;;7.70;2.45;;;28.30;82.40;;;;;;5126363;27;20494;-59
2023/06/08 12:10:22;;;;;;;8.07;2.40;;;28.80;82.20;;;;;;5115607;27;20135;-60
2023/06/08 12:12:50;;;;;;;7.70;2.63;;;28.50;82.10;;;;;;5136104;27;20043;-60
2023/06/08 12:15:18;;;;;;;7.15;2.90;;;28.50;81.10;;;;;;5136411;27;20044;-60
2023/06/08 12:17:46;;;;;;;8.25;2.63;;;28.40;81.70;;;;;;5111700;27;20063;-60
2023/06/08 12:20:17;;;;;;;9.82;2.65;;;28.60;81.70;;;;;;5117515;27;20047;-60
2023/06/08 12:22:44;;;;;;;11.20;3.30;;;28.40;81.50;;;;;;5133486;27;20050;-60
2023/06/08 12:25:11;;;;;;;6.78;2.47;;;28.50;81.10;;;;;;5116882;27;20088;-60
2023/06/08 12:27:39;;;;;;;6.10;2.75;;;28.50;81.10;;;;;;5135597;27;20051;-60
2023/06/08 12:30:08;;;;;;;4.70;2.13;;;28.40;81.50;;;;;;5117389;27;20066;-59
2023/06/08 12:32:35;;;;;;;6.70;2.10;;;28.50;81.50;;;;;;5134849;27;20122;-60
2023/06/08 12:35:05;;;;;;;7.15;2.65;;;28.50;81.70;;;;;;5117544;27;20281;-61
2023/06/08 12:37:31;;;;;;;;;;;28.40;80.70;;;;;;5117730;27;20551;-59
2023/06/08 12:39:58;;;;;;;7.03;2.13;;;28.30;81.20;;;;;;5134805;27;20466;-60
2023/06/08 12:42:25;;;;;;;7.05;2.80;;;28.50;81.70;;;;;;5117353;27;20116;-59
2023/06/08 12:44:53;;;;;;;7.13;2.10;;;28.40;80.70;;;;;;5135409;27;20122;-60
2023/06/08 12:47:20;;;;;;;4.80;2.50;;;28.50;81.20;;;;;;5114593;27;20494;-60